createdAt,value
2019-04-20T00:00:48.854Z,8.47
2019-04-20T00:03:15.848Z,7.20
2019-04-20T00:05:45.511Z,8.13
2019-04-20T00:08:22.586Z,10.70
2019-04-20T00:10:55.124Z,9.00
2019-04-20T00:13:32.320Z,9.40
2019-04-20T00:15:51.333Z,7.57
2019-04-20T00:18:21.113Z,10.77
2019-04-20T00:21:07.715Z,6.53
2019-04-20T00:23:42.033Z,8.33
2019-04-20T00:26:32.280Z,8.17
2019-04-20T00:29:07.533Z,8.50
2019-04-20T00:31:35.129Z,11.13
2019-04-20T00:34:02.707Z,11.10
2019-04-20T00:36:24.044Z,13.83
2019-04-20T00:38:58.209Z,8.58
2019-04-20T00:41:25.777Z,9.77
2019-04-20T00:43:58.675Z,8.00
2019-04-20T00:46:32.937Z,12.07
2019-04-20T00:49:06.907Z,8.67
2019-04-20T00:51:45.526Z,9.60
2019-04-20T00:54:01.973Z,9.00
2019-04-20T00:56:31.147Z,9.77
2019-04-20T00:59:12.961Z,9.53
2019-04-20T01:01:52.342Z,11.03
2019-04-20T01:04:19.815Z,8.17
2019-04-20T01:07:13.685Z,8.43
2019-04-20T01:10:05.112Z,10.00
2019-04-20T01:12:38.299Z,11.97
2019-04-20T01:15:11.274Z,9.63
2019-04-20T01:17:41.522Z,10.23
2019-04-20T01:20:10.214Z,10.90
2019-04-20T01:22:44.588Z,8.40
2019-04-20T01:25:18.246Z,7.67
2019-04-20T01:28:02.137Z,11.77
2019-04-20T01:30:23.610Z,8.47
2019-04-20T01:33:00.038Z,7.70
2019-04-20T01:35:38.286Z,8.90
2019-04-20T01:38:08.520Z,7.60
2019-04-20T01:40:19.092Z,11.00
2019-04-20T01:42:48.942Z,8.53
2019-04-20T01:45:26.777Z,10.33
2019-04-20T01:47:54.090Z,8.77
2019-04-20T01:50:26.326Z,8.87
2019-04-20T01:53:01.772Z,9.57
2019-04-20T01:55:55.752Z,8.00
2019-04-20T01:58:33.741Z,13.80
2019-04-20T02:01:14.409Z,9.60
2019-04-20T02:03:50.241Z,8.83
2019-04-20T02:06:20.166Z,9.00
2019-04-20T02:08:51.731Z,9.17
2019-04-20T02:11:26.067Z,10.08
2019-04-20T02:13:56.706Z,11.17
2019-04-20T02:16:28.605Z,9.23
2019-04-20T02:19:10.780Z,9.40
2019-04-20T02:21:43.384Z,7.90
2019-04-20T02:24:00.569Z,8.43
2019-04-20T02:26:28.162Z,8.93
2019-04-20T02:29:24.529Z,12.23
2019-04-20T02:34:40.166Z,10.40
2019-04-20T02:37:28.346Z,10.83
2019-04-20T02:47:16.542Z,8.83
2019-04-20T02:54:47.195Z,9.13
2019-04-20T02:57:20.584Z,9.50
2019-04-20T03:00:01.124Z,14.10
2019-04-20T03:02:09.094Z,13.93
2019-04-20T03:04:29.026Z,14.43
2019-04-20T03:07:03.882Z,10.97
2019-04-20T03:09:41.816Z,10.50
2019-04-20T03:12:16.812Z,10.03
2019-04-20T03:14:39.348Z,15.50
2019-04-20T03:17:15.186Z,11.17
2019-04-20T03:19:43.683Z,9.07
2019-04-20T03:22:23.545Z,9.90
2019-04-20T03:24:51.357Z,9.63
2019-04-20T03:27:28.149Z,10.27
2019-04-20T03:31:00.515Z,11.67
2019-04-20T03:35:24.979Z,10.23
2019-04-20T03:37:52.474Z,10.47
2019-04-20T03:40:19.109Z,10.93
2019-04-20T03:42:35.295Z,11.10
2019-04-20T03:45:09.775Z,10.67
2019-04-20T03:47:49.860Z,10.83
2019-04-20T03:50:30.977Z,12.63
2019-04-20T03:53:22.959Z,12.87
2019-04-20T03:56:02.311Z,12.33
2019-04-20T03:58:50.401Z,10.37
2019-04-20T04:02:06.469Z,11.60
2019-04-20T04:04:21.419Z,13.17
2019-04-20T04:06:55.847Z,10.63
2019-04-20T04:10:15.802Z,12.93
2019-04-20T04:13:18.746Z,11.97
2019-04-20T04:20:05.045Z,10.40
2019-04-20T04:23:44.908Z,14.10
2019-04-20T04:27:09.161Z,12.73
2019-04-20T04:36:15.603Z,11.00
2019-04-20T04:39:50.649Z,13.43
2019-04-20T04:43:38.898Z,17.27
2019-04-20T04:46:05.952Z,9.57
2019-04-20T04:50:03.495Z,11.30
2019-04-20T04:52:59.688Z,10.77
2019-04-20T04:56:12.784Z,12.50
2019-04-20T05:02:15.860Z,12.33
2019-04-20T05:05:47.412Z,12.50
2019-04-20T05:08:30.422Z,13.70
2019-04-20T05:11:32.145Z,16.93
2019-04-20T05:14:54.710Z,14.10
2019-04-20T05:18:30.692Z,19.27
2019-04-20T05:21:15.706Z,13.07
2019-04-20T05:24:17.909Z,13.27
2019-04-20T05:27:07.226Z,12.13
2019-04-20T05:30:22.423Z,14.87
2019-04-20T05:33:36.433Z,14.10
2019-04-20T05:36:17.384Z,13.13
2019-04-20T05:42:48.864Z,13.57
2019-04-20T05:45:35.187Z,12.97
2019-04-20T05:48:57.943Z,18.13
2019-04-20T05:51:57.725Z,13.00
2019-04-20T05:54:56.218Z,18.17
2019-04-20T05:57:31.323Z,12.27
2019-04-20T06:00:03.128Z,16.73
2019-04-20T06:02:34.825Z,11.87
2019-04-20T06:05:04.385Z,11.73
2019-04-20T06:07:40.011Z,14.50
2019-04-20T06:10:11.435Z,14.30
2019-04-20T06:12:41.526Z,11.53
2019-04-20T06:15:19.996Z,11.73
2019-04-20T06:18:02.876Z,15.40
2019-04-20T06:20:45.349Z,14.03
2019-04-20T06:23:34.577Z,11.40
2019-04-20T06:26:27.686Z,12.80
2019-04-20T06:28:30.753Z,14.13
2019-04-20T06:31:11.328Z,12.10
2019-04-20T06:34:30.654Z,12.00
2019-04-20T06:39:30.889Z,14.20
2019-04-20T06:47:17.648Z,12.47
2019-04-20T06:49:36.694Z,14.10
2019-04-20T06:52:25.124Z,12.53
2019-04-20T06:57:40.676Z,13.07
2019-04-20T07:00:30.818Z,11.27
2019-04-20T07:02:57.810Z,14.63
2019-04-20T07:05:26.041Z,13.53
2019-04-20T07:07:48.094Z,12.10
2019-04-20T07:10:32.465Z,12.70
2019-04-20T07:12:43.740Z,12.27
2019-04-20T07:15:17.719Z,11.57
2019-04-20T07:18:28.654Z,12.27
2019-04-20T07:23:28.092Z,12.60
2019-04-20T07:25:58.520Z,13.80
2019-04-20T07:28:32.868Z,14.10
2019-04-20T07:30:55.471Z,12.57
2019-04-20T07:33:32.167Z,13.00
2019-04-20T07:35:56.176Z,11.60
2019-04-20T07:38:34.557Z,12.70
2019-04-20T07:41:08.657Z,15.43
2019-04-20T07:43:51.202Z,13.40
2019-04-20T07:46:23.154Z,12.60
2019-04-20T07:48:42.187Z,15.00
2019-04-20T07:51:09.094Z,13.87
2019-04-20T07:53:50.223Z,13.20
2019-04-20T07:56:25.600Z,15.07
2019-04-20T07:58:46.059Z,13.90
2019-04-20T08:01:53.045Z,13.00
2019-04-20T08:04:21.174Z,13.27
2019-04-20T08:06:41.887Z,13.37
2019-04-20T08:09:19.427Z,13.40
2019-04-20T08:12:11.364Z,13.47
2019-04-20T08:14:50.702Z,13.13
2019-04-20T08:17:20.364Z,13.17
2019-04-20T08:19:45.693Z,16.70
2019-04-20T08:22:24.635Z,10.67
2019-04-20T08:24:42.861Z,13.17
2019-04-20T08:27:16.232Z,15.27
2019-04-20T08:30:03.604Z,14.40
2019-04-20T08:33:00.406Z,11.43
2019-04-20T08:36:00.464Z,12.07
2019-04-20T08:40:55.672Z,11.80
2019-04-20T08:46:47.555Z,11.60
2019-04-20T08:50:03.090Z,11.70
2019-04-20T08:59:44.335Z,12.07
2019-04-20T09:02:41.235Z,11.43
2019-04-20T09:10:22.526Z,10.10
2019-04-20T09:13:25.976Z,10.73
2019-04-20T09:16:26.875Z,10.53
2019-04-20T09:32:46.400Z,9.37
2019-04-20T09:35:43.261Z,10.27
2019-04-20T09:39:04.826Z,11.70
2019-04-20T09:45:47.288Z,8.60
2019-04-20T09:48:27.355Z,15.53
2019-04-20T09:51:15.033Z,8.33
2019-04-20T09:53:37.087Z,9.90
2019-04-20T09:56:19.385Z,8.13
2019-04-20T10:02:15.153Z,9.53
2019-04-20T10:04:44.164Z,9.17
2019-04-20T10:07:19.540Z,7.87
2019-04-20T10:21:14.318Z,8.50
2019-04-20T10:31:42.595Z,8.13
2019-04-20T10:34:53.083Z,8.03
2019-04-20T10:41:33.910Z,7.30
2019-04-20T10:43:54.988Z,11.23
2019-04-20T10:46:26.902Z,8.50
2019-04-20T10:53:12.389Z,8.20
2019-04-20T10:56:45.720Z,7.87
2019-04-20T10:59:59.635Z,7.93
2019-04-20T11:03:08.127Z,6.97
2019-04-20T11:10:00.637Z,8.57
2019-04-20T11:13:35.277Z,7.50
2019-04-20T11:36:52.940Z,6.30
2019-04-20T11:39:23.037Z,7.57
2019-04-20T11:42:19.756Z,9.20
2019-04-20T11:45:02.746Z,6.50
2019-04-20T11:48:31.610Z,7.60
2019-04-20T11:50:47.838Z,6.50
2019-04-20T12:01:11.094Z,6.30
2019-04-20T12:11:39.631Z,5.83
2019-04-20T12:30:29.930Z,5.70
2019-04-20T12:59:46.915Z,4.63
2019-04-20T13:58:29.867Z,5.23
2019-04-20T14:16:14.972Z,4.93
2019-04-20T14:26:16.738Z,5.37
2019-04-20T15:04:31.918Z,4.30
2019-04-20T15:07:08.655Z,4.37
2019-04-20T15:09:40.640Z,5.10
2019-04-20T15:12:10.880Z,5.03
2019-04-20T15:14:40.840Z,5.10
2019-04-20T15:17:12.053Z,5.50
2019-04-20T15:19:49.616Z,5.70
2019-04-20T15:22:34.244Z,5.60
2019-04-20T15:25:03.569Z,5.00
2019-04-20T15:27:33.245Z,6.33
2019-04-20T15:30:02.794Z,6.03
2019-04-20T15:32:33.218Z,8.27
2019-04-20T15:35:03.208Z,5.50
2019-04-20T15:37:35.166Z,4.83
2019-04-20T15:40:05.195Z,6.40
2019-04-20T15:42:47.855Z,4.60
2019-04-20T15:45:07.484Z,6.13
2019-04-20T15:47:38.239Z,6.33
2019-04-20T15:50:09.568Z,7.53
2019-04-20T15:52:44.627Z,5.40
2019-04-20T15:55:19.530Z,6.17
2019-04-20T15:57:42.669Z,4.93
2019-04-20T16:00:12.312Z,5.67
2019-04-20T16:02:47.251Z,6.03
2019-04-20T16:05:35.454Z,5.17
2019-04-20T16:08:23.683Z,6.37
2019-04-20T16:10:53.201Z,5.77
2019-04-20T16:13:31.319Z,6.60
2019-04-20T16:15:53.861Z,6.13
2019-04-20T16:19:49.120Z,4.77
2019-04-20T16:22:12.700Z,4.63
2019-04-20T16:24:56.516Z,5.10
2019-04-20T16:27:37.907Z,5.00
2019-04-20T16:30:20.684Z,7.07
2019-04-20T16:32:50.333Z,7.00
2019-04-20T16:35:20.340Z,4.87
2019-04-20T16:37:50.751Z,4.73
2019-04-20T16:40:20.642Z,4.70
2019-04-20T16:42:50.267Z,4.73
2019-04-20T16:45:19.649Z,4.13
2019-04-20T16:47:49.984Z,4.13
2019-04-20T16:50:19.471Z,4.10
2019-04-20T16:52:48.856Z,5.00
2019-04-20T16:55:18.867Z,7.20
2019-04-20T16:57:49.648Z,7.20
2019-04-20T17:00:19.888Z,6.23
2019-04-20T17:02:50.113Z,4.63
2019-04-20T17:05:20.952Z,4.60
2019-04-20T17:07:51.221Z,5.80
2019-04-20T17:10:23.835Z,6.60
2019-04-20T17:12:53.711Z,4.53
2019-04-20T17:15:23.592Z,3.90
2019-04-20T17:17:55.294Z,12.77
2019-04-20T17:20:26.659Z,7.53
2019-04-20T17:22:56.246Z,4.70
2019-04-20T17:25:25.870Z,4.90
2019-04-20T17:28:17.314Z,4.73
2019-04-20T17:30:59.022Z,4.90
2019-04-20T17:33:50.767Z,4.80
2019-04-20T17:36:19.040Z,5.37
2019-04-20T17:38:49.884Z,4.90
2019-04-20T17:41:38.522Z,5.93
2019-04-20T17:44:07.159Z,4.93
2019-04-20T17:46:31.557Z,7.70
2019-04-20T17:49:07.317Z,4.73
2019-04-20T17:51:39.648Z,5.40
2019-04-20T17:54:25.141Z,6.23
2019-04-20T17:56:56.142Z,5.23
2019-04-20T17:59:28.372Z,7.23
2019-04-20T18:02:25.507Z,5.60
2019-04-20T18:05:14.488Z,5.27
2019-04-20T18:07:41.256Z,6.37
2019-04-20T18:10:16.106Z,5.30
2019-04-20T18:12:32.772Z,5.80
2019-04-20T18:15:15.226Z,7.47
2019-04-20T18:18:01.990Z,8.37
2019-04-20T18:20:38.961Z,6.50
2019-04-20T18:23:08.840Z,6.67
2019-04-20T18:26:07.911Z,7.40
2019-04-20T18:28:19.648Z,7.67
2019-04-20T18:31:09.124Z,6.20
2019-04-20T18:33:40.452Z,9.20
2019-04-20T18:36:13.342Z,8.77
2019-04-20T18:38:49.633Z,7.20
2019-04-20T18:41:23.161Z,8.63
2019-04-20T18:43:48.650Z,9.10
2019-04-20T18:46:26.101Z,7.40
2019-04-20T18:49:06.902Z,7.20
2019-04-20T18:51:17.539Z,8.03
2019-04-20T18:53:49.960Z,8.00
2019-04-20T18:56:26.191Z,7.58
2019-04-20T18:58:49.165Z,7.28
2019-04-20T19:01:19.265Z,7.90
2019-04-20T19:03:49.427Z,8.57
2019-04-20T19:06:21.074Z,8.55
2019-04-20T19:08:56.015Z,10.50
2019-04-20T19:11:41.175Z,8.37
2019-04-20T19:14:38.032Z,7.90
2019-04-20T19:17:45.239Z,7.77
2019-04-20T19:20:12.010Z,9.50
2019-04-20T19:22:44.103Z,9.53
2019-04-20T19:25:19.833Z,10.90
2019-04-20T19:27:49.309Z,8.10
2019-04-20T19:30:27.374Z,9.67
2019-04-20T19:33:05.050Z,8.40
2019-04-20T19:35:31.881Z,10.67
2019-04-20T19:38:01.755Z,14.37
2019-04-20T19:40:33.679Z,9.40
2019-04-20T19:43:08.560Z,7.42
2019-04-20T19:45:56.693Z,10.23
2019-04-20T19:48:18.951Z,11.83
2019-04-20T19:50:57.660Z,11.40
2019-04-20T19:53:26.088Z,9.45
2019-04-20T19:55:47.872Z,8.80
2019-04-20T19:58:18.897Z,13.20
2019-04-20T20:00:56.311Z,9.50
2019-04-20T20:03:25.908Z,9.15
2019-04-20T20:05:58.227Z,14.90
2019-04-20T20:08:32.628Z,8.90
2019-04-20T20:11:01.254Z,10.83
2019-04-20T20:13:34.498Z,8.93
2019-04-20T20:16:09.398Z,8.63
2019-04-20T20:18:46.607Z,9.30
2019-04-20T20:21:16.153Z,11.60
2019-04-20T20:23:34.244Z,9.63
2019-04-20T20:26:07.056Z,11.60
2019-04-20T20:28:43.616Z,11.47
2019-04-20T20:31:17.125Z,10.00
2019-04-20T20:33:49.413Z,9.30
2019-04-20T20:36:12.585Z,10.33
2019-04-20T20:38:43.690Z,14.80
2019-04-20T20:41:18.381Z,14.13
2019-04-20T20:43:52.352Z,11.53
2019-04-20T20:46:24.948Z,10.77
2019-04-20T20:49:04.721Z,12.07
2019-04-20T20:51:39.210Z,10.60
2019-04-20T20:53:59.034Z,13.30
2019-04-20T20:56:24.373Z,12.47
2019-04-20T20:58:59.563Z,11.90
2019-04-20T21:01:25.297Z,10.73
2019-04-20T21:03:53.095Z,11.80
2019-04-20T21:06:22.812Z,15.00
2019-04-20T21:08:56.011Z,13.17
2019-04-20T21:11:27.494Z,10.67
2019-04-20T21:13:56.296Z,13.37
2019-04-20T21:16:33.030Z,11.00
2019-04-20T21:19:14.758Z,16.23
2019-04-20T21:21:41.335Z,11.60
2019-04-20T21:24:12.043Z,12.73
2019-04-20T21:26:40.982Z,12.50
2019-04-20T21:29:08.243Z,13.40
2019-04-20T21:31:38.545Z,10.10
2019-04-20T21:34:14.926Z,14.00
2019-04-20T21:36:41.131Z,12.50
2019-04-20T21:39:22.039Z,10.87
2019-04-20T21:41:49.653Z,11.90
2019-04-20T21:44:21.744Z,10.38
2019-04-20T21:46:49.212Z,14.65
2019-04-20T21:49:31.122Z,13.20
2019-04-20T21:51:54.823Z,11.67
2019-04-20T21:54:18.241Z,11.97
2019-04-20T21:56:55.041Z,17.37
2019-04-20T21:59:27.242Z,16.47
2019-04-20T22:01:58.602Z,13.07
2019-04-20T22:04:23.019Z,17.50
2019-04-20T22:06:54.207Z,11.03
2019-04-20T22:09:25.120Z,12.87
2019-04-20T22:11:56.089Z,13.67
2019-04-20T22:14:29.569Z,18.23
2019-04-20T22:16:59.188Z,11.67
2019-04-20T22:19:40.133Z,12.70
2019-04-20T22:22:11.934Z,12.37
2019-04-20T22:24:46.510Z,16.02
2019-04-20T22:27:09.878Z,14.10
2019-04-20T22:29:34.266Z,14.27
2019-04-20T22:32:09.489Z,12.03
2019-04-20T22:34:35.261Z,12.43
2019-04-20T22:37:08.087Z,17.93
2019-04-20T22:39:44.615Z,14.80
2019-04-20T22:42:12.870Z,14.40
2019-04-20T22:44:41.259Z,13.50
2019-04-20T22:47:16.830Z,10.60
2019-04-20T22:49:51.528Z,12.07
2019-04-20T22:52:30.448Z,10.97
2019-04-20T22:55:01.204Z,13.53
2019-04-20T22:57:31.914Z,14.58
2019-04-20T22:59:56.914Z,14.10
2019-04-20T23:02:21.110Z,12.40
2019-04-20T23:04:48.780Z,14.63
2019-04-20T23:07:18.823Z,16.43
2019-04-20T23:09:54.384Z,14.17
2019-04-20T23:12:23.311Z,17.90
2019-04-20T23:14:52.307Z,14.90
2019-04-20T23:17:26.950Z,13.10
2019-04-20T23:19:57.441Z,19.63
2019-04-20T23:22:34.029Z,15.10
2019-04-20T23:24:55.356Z,16.13
2019-04-20T23:27:29.395Z,14.90
2019-04-20T23:29:55.605Z,12.73
2019-04-20T23:32:28.643Z,12.93
2019-04-20T23:35:05.946Z,14.28
2019-04-20T23:37:35.596Z,16.77
2019-04-20T23:40:08.176Z,14.30
2019-04-20T23:42:44.163Z,17.87
2019-04-20T23:45:35.540Z,21.93
2019-04-20T23:48:07.151Z,15.20
2019-04-20T23:50:56.981Z,15.30
2019-04-20T23:53:29.750Z,15.10
2019-04-20T23:55:41.544Z,13.10
2019-04-20T23:58:12.628Z,14.83
